Cedar Hill, Texas
Current Conditions -  °F | °C
As of 12:53 PM on Monday 20 Oct 2014 (Local Time) from KRBD Reporting Station
Scattered Clouds Scattered Clouds  
Wind Chill: 79°   Ceiling: Unl
Heat Index: 80°   Visibility: 10mi
Dew Point: 61°   Wind: 0mph
Humidity: 54%   Direction: NA
Pressure: 30.07"   Gusts: NA
Location:  32.59°N, 96.95°W
Report Text: KRBD 201753Z 00000KT 10SM SCT033 26/16 A3007 RMK AO2 SLP177 T02610161 10267 20139 58012
Loading
Personal Weather Stations






























Interactive Weather Map
Tropical Storm Tracking
New forecast layout! Learn more

10-Day Weather Forecast

Advertisements
Track Severe Weather on mobile